Decoded Metar for OICC (BAKHTARAN in IRAN) (IATA:KSH) | Meteo·Mobile Aviation Weather
aviador You're here:

OICC Decoded Metar

BAKHTARAN in IRAN
Report Time2019-05-22 06:30:00
UTC Time2019-05-22 06:44:14
Flight Rules vfr VFR
Wind250° at 04 kt
W.Decomp.*RWY 29: 2.9 kt HW 2.7 kt LCW
Visibility9999 m
Phenomena:N/A
Clouds:Few 045 Hf
Expected CloudBase > 6,000 ft AGL from Temp-Dew spread
CeilingNone
Temp21°C (ISA +15)
Dew Point06°C (38% RH)
AAT18.7°C
QNH1019 hPa
Density Alt5,958 ft
Elevation4,337 ft
Report Wrong Elevation
Raw Report
OICC 220630Z 25004KT 9999 FEW045 21/06 Q1019 A3010 NOSIG=

Extra information for OICC:More info

Metar Taf Metar & Taf Last 4 Metars F.Rules Stats Wind Profile Meteogram Temp Stats Airport Information Weather charts Add Link Nearby VenuesMetar ALERT Operation Metar Decoded Social comments